FFX weather

Fremont Municipal Airport
Fremont, Michigan, United States

Public forecast

Using degrees Fahrenheit for public forecast. Weather courtesy of forecast.io.

Current aviation weather report (METAR) for Fremont Municipal Airport

Retrieved 2020/01/23 22:36 UTC (0 seconds ago):

KFFX 232236Z AUTO 11003KT 3SM -SN BKN032 OVC039 01/01 A3009 RMK AO2 T00060006

Closest aviation forecast (TAF) to Fremont Municipal Airport

Closest forecast is Muskegon County Airport, 19.4 nm (35.9 km) SSW. Retrieved 2020/01/23 18:22 UTC (4 hours ago):

TAF KMKG 231720Z 2318/2418 15008KT 1 1/2SM -SN BR OVC010 FM240000 12007KT 4SM -RASN BR OVC015 FM240900 09008KT 3SM -RASN BR OVC010 FM241500 07012KT 3SM -RASN BR OVC010